Time,TemperatureF,DewpointF,PressureIn,WindDirection,WindDirectionDegrees,WindSpeedMPH,WindSpeedGustMPH,Humidity,HourlyPrecipIn,Conditions,Clouds,dailyrainin,SoftwareType,DateUTC
2013-04-17 00:00:00,55.9,50.1,30.53,SE,135,0.0,0.0,81,0.00,,,0.00,WUHU216HW,2013-04-17 04:00:00,
2013-04-17 00:05:00,55.9,50.1,30.53,SE,135,0.0,0.0,81,0.00,,,0.00,WUHU216HW,2013-04-17 04:05:00,
2013-04-17 00:10:00,56.1,50.3,30.52,SE,135,0.0,0.0,81,0.00,,,0.00,WUHU216HW,2013-04-17 04:10:00,
2013-04-17 00:15:00,56.4,51.0,30.52,SE,135,0.0,0.0,82,0.00,,,0.00,WUHU216HW,2013-04-17 04:15:00,
2013-04-17 00:20:00,57.0,51.5,30.52,SE,135,0.0,0.0,82,0.00,,,0.00,WUHU216HW,2013-04-17 04:20:00,
2013-04-17 00:25:00,57.3,51.9,30.52,SW,225,0.0,4.6,82,0.00,,,0.00,WUHU216HW,2013-04-17 04:25:00,
2013-04-17 00:30:00,57.9,52.1,30.52,NNW,338,0.0,4.6,81,0.00,,,0.00,WUHU216HW,2013-04-17 04:30:00,
2013-04-17 00:35:00,58.6,52.5,30.52,NE,45,0.0,0.0,80,0.00,,,0.00,WUHU216HW,2013-04-17 04:35:00,
2013-04-17 00:40:00,58.8,52.3,30.52,NNE,23,0.0,0.0,79,0.00,,,0.00,WUHU216HW,2013-04-17 04:40:00,
2013-04-17 00:45:00,59.0,52.5,30.51,NNE,23,0.0,0.0,79,0.00,,,0.00,WUHU216HW,2013-04-17 04:45:00,
2013-04-17 00:50:00,59.3,52.8,30.51,North,0,0.0,0.0,79,0.00,,,0.00,WUHU216HW,2013-04-17 04:50:00,
2013-04-17 00:55:00,59.5,52.7,30.51,WNW,293,0.0,0.0,78,0.00,,,0.00,WUHU216HW,2013-04-17 04:55:00,
2013-04-17 01:00:00,59.7,52.8,30.51,NNE,23,0.0,0.0,78,0.00,,,0.00,WUHU216HW,2013-04-17 05:00:00,
2013-04-17 01:05:00,59.7,52.8,30.51,NNW,338,0.0,6.7,78,0.00,,,0.00,WUHU216HW,2013-04-17 05:05:00,
2013-04-17 01:10:00,59.9,52.7,30.50,WNW,293,0.0,6.7,77,0.00,,,0.00,WUHU216HW,2013-04-17 05:10:00,
2013-04-17 01:15:00,59.9,52.7,30.50,NNE,23,0.0,0.0,77,0.00,,,0.00,WUHU216HW,2013-04-17 05:15:00,
2013-04-17 01:20:00,59.9,52.7,30.50,NNW,338,0.0,0.0,77,0.00,,,0.00,WUHU216HW,2013-04-17 05:20:00,
2013-04-17 01:25:00,59.9,52.7,30.50,NNW,338,0.0,0.0,77,0.00,,,0.00,WUHU216HW,2013-04-17 05:25:00,
2013-04-17 01:30:00,60.0,52.8,30.50,NW,315,0.0,2.4,77,0.00,,,0.00,WUHU216HW,2013-04-17 05:30:00,
2013-04-17 01:35:00,60.0,52.8,30.50,NNE,23,0.0,2.4,77,0.00,,,0.00,WUHU216HW,2013-04-17 05:35:00,
2013-04-17 01:40:00,60.0,52.8,30.50,NNW,338,0.0,0.0,77,0.00,,,0.00,WUHU216HW,2013-04-17 05:40:00,
2013-04-17 01:45:00,60.0,52.8,30.51,East,90,0.0,1.5,77,0.00,,,0.00,WUHU216HW,2013-04-17 05:45:00,
2013-04-17 01:50:00,60.0,52.8,30.51,NNW,338,0.0,1.5,77,0.00,,,0.00,WUHU216HW,2013-04-17 05:50:00,
2013-04-17 01:55:00,60.0,52.8,30.51,NNE,23,0.0,0.0,77,0.00,,,0.00,WUHU216HW,2013-04-17 05:55:00,
2013-04-17 02:00:00,60.0,52.8,30.51,NNE,23,0.0,0.0,77,0.00,,,0.00,WUHU216HW,2013-04-17 06:00:00,
2013-04-17 02:05:00,60.0,52.8,30.51,NNE,23,0.0,0.0,77,0.00,,,0.00,WUHU216HW,2013-04-17 06:05:00,
2013-04-17 02:10:00,60.4,53.2,30.51,ESE,113,0.0,3.1,77,0.00,,,0.00,WUHU216HW,2013-04-17 06:10:00,
2013-04-17 02:15:00,60.4,53.2,30.51,ESE,113,0.0,3.1,77,0.00,,,0.00,WUHU216HW,2013-04-17 06:15:00,
2013-04-17 02:20:00,60.4,53.2,30.51,West,270,0.0,0.0,77,0.00,,,0.00,WUHU216HW,2013-04-17 06:20:00,
2013-04-17 02:25:00,60.6,53.4,30.50,West,270,0.0,0.0,77,0.00,,,0.00,WUHU216HW,2013-04-17 06:25:00,
2013-04-17 02:30:00,60.6,53.4,30.51,NNW,338,0.0,0.0,77,0.00,,,0.00,WUHU216HW,2013-04-17 06:30:00,
2013-04-17 02:35:00,60.6,53.4,30.51,WNW,293,0.0,0.0,77,0.00,,,0.00,WUHU216HW,2013-04-17 06:35:00,
2013-04-17 02:40:00,60.6,53.4,30.51,WNW,293,0.0,0.0,77,0.00,,,0.00,WUHU216HW,2013-04-17 06:40:00,
2013-04-17 02:45:00,60.6,53.4,30.51,NNW,338,0.0,0.0,77,0.00,,,0.00,WUHU216HW,2013-04-17 06:45:00,
2013-04-17 02:50:00,60.8,53.6,30.51,NNW,338,0.0,0.0,77,0.00,,,0.00,WUHU216HW,2013-04-17 06:50:00,
2013-04-17 02:55:00,60.8,53.6,30.50,NNW,338,0.0,0.0,77,0.00,,,0.00,WUHU216HW,2013-04-17 06:55:00,
2013-04-17 03:00:00,60.9,53.7,30.50,NW,315,0.0,0.0,77,0.00,,,0.00,WUHU216HW,2013-04-17 07:00:00,
2013-04-17 03:05:00,60.8,53.6,30.51,NW,315,0.0,0.0,77,0.00,,,0.00,WUHU216HW,2013-04-17 07:05:00,
2013-04-17 03:10:00,60.9,53.7,30.51,WSW,248,0.0,0.0,77,0.00,,,0.00,WUHU216HW,2013-04-17 07:10:00,
2013-04-17 03:15:00,60.9,53.7,30.50,North,0,0.0,0.0,77,0.00,,,0.00,WUHU216HW,2013-04-17 07:15:00,
2013-04-17 03:20:00,60.9,53.7,30.50,NW,315,7.1,7.1,77,0.00,,,0.00,WUHU216HW,2013-04-17 07:20:00,
2013-04-17 03:25:00,61.1,53.9,30.51,SW,225,0.0,7.1,77,0.00,,,0.00,WUHU216HW,2013-04-17 07:25:00,
2013-04-17 03:30:00,61.1,53.9,30.51,SE,135,0.0,7.1,77,0.00,,,0.00,WUHU216HW,2013-04-17 07:30:00,
2013-04-17 03:35:00,61.1,53.9,30.50,NNW,338,0.0,0.0,77,0.00,,,0.00,WUHU216HW,2013-04-17 07:35:00,
2013-04-17 03:40:00,61.1,53.9,30.51,NNW,338,0.0,0.0,77,0.00,,,0.00,WUHU216HW,2013-04-17 07:40:00,
2013-04-17 03:45:00,61.1,53.9,30.51,WNW,293,0.0,0.0,77,0.00,,,0.00,WUHU216HW,2013-04-17 07:45:00,
2013-04-17 03:50:00,61.1,53.9,30.51,NW,315,0.0,0.0,77,0.00,,,0.00,WUHU216HW,2013-04-17 07:50:00,
2013-04-17 03:55:00,61.1,53.9,30.50,West,270,0.0,0.0,77,0.00,,,0.00,WUHU216HW,2013-04-17 07:55:00,
2013-04-17 04:00:00,61.1,54.2,30.50,NNE,23,0.0,0.0,78,0.00,,,0.00,WUHU216HW,2013-04-17 08:00:00,
2013-04-17 04:06:00,61.1,54.2,30.50,North,0,0.0,0.0,78,0.00,,,0.00,WUHU216HW,2013-04-17 08:06:00,
2013-04-17 04:11:00,61.3,54.4,30.50,North,0,0.0,0.0,78,0.00,,,0.00,WUHU216HW,2013-04-17 08:11:00,
2013-04-17 04:16:00,61.3,54.4,30.50,NW,315,0.0,0.0,78,0.00,,,0.00,WUHU216HW,2013-04-17 08:16:00,
2013-04-17 04:21:00,61.3,54.4,30.50,NNE,23,0.0,0.0,78,0.00,,,0.00,WUHU216HW,2013-04-17 08:21:00,
2013-04-17 04:26:00,61.3,54.4,30.50,WSW,248,0.0,0.0,78,0.00,,,0.00,WUHU216HW,2013-04-17 08:26:00,
2013-04-17 04:31:00,61.3,54.4,30.50,North,0,0.0,0.0,78,0.00,,,0.00,WUHU216HW,2013-04-17 08:31:00,
2013-04-17 04:36:00,61.5,54.9,30.50,North,0,0.0,0.0,79,0.00,,,0.00,WUHU216HW,2013-04-17 08:36:00,
2013-04-17 04:41:00,61.3,54.4,30.50,NNW,338,0.0,0.0,78,0.00,,,0.00,WUHU216HW,2013-04-17 08:41:00,
2013-04-17 04:46:00,61.3,54.4,30.50,NW,315,1.3,1.3,78,0.00,,,0.00,WUHU216HW,2013-04-17 08:46:00,
2013-04-17 04:51:00,61.3,54.8,30.50,SW,225,0.0,1.3,79,0.00,,,0.00,WUHU216HW,2013-04-17 08:51:00,
2013-04-17 04:56:00,61.5,54.9,30.50,WNW,293,0.0,1.3,79,0.00,,,0.00,WUHU216HW,2013-04-17 08:56:00,
2013-04-17 05:01:00,61.3,54.8,30.50,NNW,338,0.0,0.0,79,0.00,,,0.00,WUHU216HW,2013-04-17 09:01:00,
2013-04-17 05:06:00,61.5,54.9,30.50,NNW,338,0.0,0.0,79,0.00,,,0.00,WUHU216HW,2013-04-17 09:06:00,
2013-04-17 05:11:00,61.5,54.9,30.50,NNW,338,0.0,0.0,79,0.00,,,0.00,WUHU216HW,2013-04-17 09:11:00,
2013-04-17 05:16:00,61.5,54.9,30.50,NNW,338,0.0,0.0,79,0.00,,,0.00,WUHU216HW,2013-04-17 09:16:00,
2013-04-17 05:21:00,61.3,54.8,30.50,NW,315,0.0,0.0,79,0.00,,,0.00,WUHU216HW,2013-04-17 09:21:00,
2013-04-17 05:26:00,61.3,54.8,30.50,WNW,293,4.2,4.2,79,0.00,,,0.00,WUHU216HW,2013-04-17 09:26:00,
2013-04-17 05:31:00,61.3,54.8,30.50,WNW,293,0.0,4.2,79,0.00,,,0.00,WUHU216HW,2013-04-17 09:31:00,
2013-04-17 05:36:00,61.3,54.8,30.49,WNW,293,0.0,4.2,79,0.00,,,0.00,WUHU216HW,2013-04-17 09:36:00,
2013-04-17 05:41:00,61.3,54.8,30.49,WNW,293,0.0,0.0,79,0.00,,,0.00,WUHU216HW,2013-04-17 09:41:00,
2013-04-17 05:46:00,61.3,54.8,30.49,WNW,293,0.0,0.0,79,0.00,,,0.00,WUHU216HW,2013-04-17 09:46:00,
2013-04-17 05:51:00,61.1,54.6,30.50,NW,315,0.0,0.0,79,0.00,,,0.00,WUHU216HW,2013-04-17 09:51:00,
2013-04-17 05:56:00,60.9,54.8,30.50,WNW,293,0.0,3.1,80,0.00,,,0.00,WUHU216HW,2013-04-17 09:56:00,
2013-04-17 06:02:00,60.9,54.8,30.50,NW,315,0.0,3.1,80,0.00,,,0.00,WUHU216HW,2013-04-17 10:02:00,
2013-04-17 06:07:00,60.6,54.5,30.50,NW,315,0.0,0.0,80,0.00,,,0.00,WUHU216HW,2013-04-17 10:07:00,
2013-04-17 06:12:00,60.0,53.9,30.49,WNW,293,0.0,7.1,80,0.00,,,0.00,WUHU216HW,2013-04-17 10:12:00,
2013-04-17 06:17:00,59.7,53.6,30.50,WNW,293,0.0,7.1,80,0.00,,,0.00,WUHU216HW,2013-04-17 10:17:00,
2013-04-17 06:22:00,59.5,53.7,30.51,WNW,293,0.0,0.0,81,0.00,,,0.00,WUHU216HW,2013-04-17 10:22:00,
2013-04-17 06:27:00,59.0,53.5,30.52,WNW,293,2.9,6.2,82,0.00,,,0.00,WUHU216HW,2013-04-17 10:27:00,
2013-04-17 06:32:00,58.8,53.3,30.52,WNW,293,0.0,6.2,82,0.00,,,0.00,WUHU216HW,2013-04-17 10:32:00,
2013-04-17 06:37:00,58.4,53.3,30.53,NW,315,0.0,2.9,83,0.00,,,0.00,WUHU216HW,2013-04-17 10:37:00,
2013-04-17 06:42:00,58.1,52.9,30.53,WNW,293,3.1,3.1,83,0.00,,,0.00,WUHU216HW,2013-04-17 10:42:00,
2013-04-17 06:47:00,57.7,52.5,30.54,NW,315,0.0,3.1,83,0.00,,,0.00,WUHU216HW,2013-04-17 10:47:00,
2013-04-17 06:52:00,57.3,52.5,30.55,WNW,293,4.2,4.2,84,0.00,,,0.00,WUHU216HW,2013-04-17 10:52:00,
2013-04-17 06:57:00,57.0,52.1,30.55,WNW,293,0.0,6.0,84,0.02,,,0.02,WUHU216HW,2013-04-17 10:57:00,
2013-04-17 07:02:00,56.8,51.6,30.55,NW,315,0.0,6.0,83,0.02,,,0.02,WUHU216HW,2013-04-17 11:02:00,
2013-04-17 07:07:00,56.4,51.3,30.55,WNW,293,0.0,0.0,83,0.02,,,0.02,WUHU216HW,2013-04-17 11:07:00,
2013-04-17 07:12:00,56.3,51.1,30.55,WNW,293,0.0,0.0,83,0.02,,,0.02,WUHU216HW,2013-04-17 11:12:00,
2013-04-17 07:17:00,56.1,50.6,30.56,WNW,293,0.0,0.0,82,0.02,,,0.02,WUHU216HW,2013-04-17 11:17:00,
2013-04-17 07:22:00,56.1,50.3,30.56,West,270,0.0,0.0,81,0.02,,,0.02,WUHU216HW,2013-04-17 11:22:00,
2013-04-17 07:27:00,55.9,49.8,30.57,NW,315,0.0,0.0,80,0.02,,,0.02,WUHU216HW,2013-04-17 11:27:00,
2013-04-17 07:32:00,55.9,49.4,30.57,NW,315,0.0,0.0,79,0.02,,,0.02,WUHU216HW,2013-04-17 11:32:00,
2013-04-17 07:37:00,55.7,48.9,30.58,NW,315,0.0,0.0,78,0.02,,,0.02,WUHU216HW,2013-04-17 11:37:00,
2013-04-17 07:42:00,55.7,48.9,30.58,NW,315,5.1,5.1,78,0.02,,,0.02,WUHU216HW,2013-04-17 11:42:00,
2013-04-17 07:47:00,55.5,48.4,30.58,NW,315,7.3,7.3,77,0.02,,,0.02,WUHU216HW,2013-04-17 11:47:00,
2013-04-17 07:52:00,55.4,47.5,30.59,WNW,293,4.9,7.3,75,0.02,,,0.02,WUHU216HW,2013-04-17 11:52:00,
2013-04-17 07:57:00,55.4,47.5,30.59,NW,315,2.9,6.7,75,0.00,,,0.02,WUHU216HW,2013-04-17 11:57:00,
2013-04-17 08:02:00,55.4,47.2,30.59,WNW,293,0.0,6.7,74,0.00,,,0.02,WUHU216HW,2013-04-17 12:02:00,
2013-04-17 08:07:00,55.5,47.3,30.59,WNW,293,0.0,0.0,74,0.00,,,0.02,WUHU216HW,2013-04-17 12:07:00,
2013-04-17 08:12:00,55.5,47.3,30.59,WNW,293,0.0,0.0,74,0.00,,,0.02,WUHU216HW,2013-04-17 12:12:00,
2013-04-17 08:17:00,55.7,47.2,30.60,WNW,293,0.0,0.0,73,0.00,,,0.02,WUHU216HW,2013-04-17 12:17:00,
2013-04-17 08:22:00,55.9,47.3,30.59,WSW,248,0.0,0.0,73,0.00,,,0.02,WUHU216HW,2013-04-17 12:22:00,
2013-04-17 08:27:00,56.1,47.5,30.60,WNW,293,0.0,4.4,73,0.00,,,0.02,WUHU216HW,2013-04-17 12:27:00,
2013-04-17 08:32:00,56.1,47.5,30.60,WNW,293,0.0,4.4,73,0.00,,,0.02,WUHU216HW,2013-04-17 12:32:00,
2013-04-17 08:37:00,56.1,47.1,30.60,WNW,293,0.0,1.5,72,0.00,,,0.02,WUHU216HW,2013-04-17 12:37:00,
2013-04-17 08:42:00,56.1,47.1,30.61,WNW,293,0.0,1.5,72,0.00,,,0.02,WUHU216HW,2013-04-17 12:42:00,
2013-04-17 08:47:00,56.3,47.3,30.61,WNW,293,0.0,0.0,72,0.00,,,0.02,WUHU216HW,2013-04-17 12:47:00,
2013-04-17 08:52:00,56.3,47.0,30.60,WNW,293,0.0,0.0,71,0.00,,,0.02,WUHU216HW,2013-04-17 12:52:00,
2013-04-17 08:57:00,56.4,47.1,30.60,WNW,293,0.0,0.0,71,0.00,,,0.02,WUHU216HW,2013-04-17 12:57:00,
2013-04-17 09:02:00,56.4,47.1,30.60,WNW,293,0.0,0.0,71,0.00,,,0.02,WUHU216HW,2013-04-17 13:02:00,
2013-04-17 09:07:00,56.4,47.1,30.61,WNW,293,3.8,3.8,71,0.00,,,0.02,WUHU216HW,2013-04-17 13:07:00,
2013-04-17 09:12:00,56.4,46.8,30.60,WNW,293,0.0,3.8,70,0.00,,,0.02,WUHU216HW,2013-04-17 13:12:00,
2013-04-17 09:17:00,56.6,46.9,30.61,NW,315,0.0,3.8,70,0.00,,,0.02,WUHU216HW,2013-04-17 13:17:00,
2013-04-17 09:22:00,56.8,47.1,30.60,WNW,293,0.0,0.0,70,0.00,,,0.02,WUHU216HW,2013-04-17 13:22:00,
2013-04-17 09:27:00,56.8,47.1,30.61,West,270,0.0,0.0,70,0.00,,,0.02,WUHU216HW,2013-04-17 13:27:00,
2013-04-17 09:32:00,57.0,47.3,30.61,NNW,338,0.0,0.0,70,0.00,,,0.02,WUHU216HW,2013-04-17 13:32:00,
2013-04-17 09:37:00,57.0,46.9,30.60,WNW,293,0.0,1.5,69,0.00,,,0.02,WUHU216HW,2013-04-17 13:37:00,
2013-04-17 09:42:00,57.2,47.0,30.61,WNW,293,0.0,1.5,69,0.00,,,0.02,WUHU216HW,2013-04-17 13:42:00,
2013-04-17 09:47:00,57.5,47.0,30.61,NW,315,0.0,0.0,68,0.00,,,0.02,WUHU216HW,2013-04-17 13:47:00,
2013-04-17 09:52:00,57.9,47.3,30.61,NW,315,0.0,0.0,68,0.00,,,0.02,WUHU216HW,2013-04-17 13:52:00,
2013-04-17 09:57:00,58.6,47.6,30.61,WNW,293,0.0,0.0,67,0.00,,,0.02,WUHU216HW,2013-04-17 13:57:00,
2013-04-17 10:02:00,58.8,47.4,30.60,WNW,293,0.0,6.9,66,0.00,,,0.02,WUHU216HW,2013-04-17 14:02:00,
2013-04-17 10:07:00,59.3,47.5,30.61,WNW,293,7.1,7.1,65,0.00,,,0.02,WUHU216HW,2013-04-17 14:07:00,
2013-04-17 10:12:00,59.9,47.6,30.61,NW,315,0.0,7.1,64,0.00,,,0.02,WUHU216HW,2013-04-17 14:12:00,
2013-04-17 10:17:00,60.4,48.3,30.61,WNW,293,0.0,7.1,64,0.00,,,0.02,WUHU216HW,2013-04-17 14:17:00,
2013-04-17 10:22:00,62.0,48.9,30.61,WNW,293,0.0,0.0,62,0.00,,,0.02,WUHU216HW,2013-04-17 14:22:00,
2013-04-17 10:27:00,62.9,49.2,30.61,WNW,293,0.0,0.0,61,0.00,,,0.02,WUHU216HW,2013-04-17 14:27:00,
2013-04-17 10:32:00,64.2,49.5,30.61,WNW,293,0.0,0.0,59,0.00,,,0.02,WUHU216HW,2013-04-17 14:32:00,
2013-04-17 10:37:00,65.4,49.8,30.61,WNW,293,0.0,0.0,57,0.00,,,0.02,WUHU216HW,2013-04-17 14:37:00,
2013-04-17 10:42:00,66.5,49.8,30.60,WNW,293,0.0,0.0,55,0.00,,,0.02,WUHU216HW,2013-04-17 14:42:00,
2013-04-17 10:47:00,67.8,49.5,30.61,WNW,293,0.0,0.0,53,0.00,,,0.02,WUHU216HW,2013-04-17 14:47:00,
2013-04-17 10:52:00,68.3,49.5,30.61,NW,315,0.4,4.0,51,0.00,,,0.02,WUHU216HW,2013-04-17 14:52:00,
2013-04-17 10:57:00,68.5,49.2,30.60,NW,315,0.0,4.0,50,0.00,,,0.02,WUHU216HW,2013-04-17 14:57:00,
2013-04-17 11:02:00,68.7,48.9,30.61,NW,315,0.0,0.4,50,0.00,,,0.02,WUHU216HW,2013-04-17 15:02:00,
2013-04-17 11:07:00,69.4,48.8,30.60,West,270,0.0,5.1,48,0.00,,,0.02,WUHU216HW,2013-04-17 15:07:00,
2013-04-17 11:12:00,69.6,49.0,30.60,SSE,158,0.0,5.1,48,0.00,,,0.02,WUHU216HW,2013-04-17 15:12:00,
2013-04-17 11:17:00,70.3,49.0,30.60,NW,315,7.3,7.3,47,0.00,,,0.02,WUHU216HW,2013-04-17 15:17:00,
2013-04-17 11:22:00,71.2,49.2,30.59,WNW,293,0.0,7.3,46,0.00,,,0.02,WUHU216HW,2013-04-17 15:22:00,
2013-04-17 11:27:00,71.4,48.8,30.59,SW,225,0.0,7.3,45,0.00,,,0.02,WUHU216HW,2013-04-17 15:27:00,
2013-04-17 11:32:00,71.4,48.2,30.59,WNW,293,0.0,0.0,44,0.00,,,0.02,WUHU216HW,2013-04-17 15:32:00,
2013-04-17 11:37:00,71.4,47.6,30.59,NW,315,0.0,0.0,43,0.00,,,0.02,WUHU216HW,2013-04-17 15:37:00,
2013-04-17 11:42:00,71.4,47.6,30.58,WNW,293,0.0,0.0,43,0.00,,,0.02,WUHU216HW,2013-04-17 15:42:00,
2013-04-17 11:47:00,71.6,47.2,30.58,NW,315,0.0,0.0,42,0.00,,,0.02,WUHU216HW,2013-04-17 15:47:00,
2013-04-17 11:52:00,71.4,47.0,30.59,West,270,0.0,0.0,42,0.00,,,0.02,WUHU216HW,2013-04-17 15:52:00,
2013-04-17 11:57:00,71.4,47.0,30.59,SSE,158,0.0,0.0,42,0.00,,,0.02,WUHU216HW,2013-04-17 15:57:00,
2013-04-17 12:02:00,71.9,46.9,30.59,WNW,293,0.0,0.0,41,0.00,,,0.02,WUHU216HW,2013-04-17 16:02:00,
2013-04-17 12:07:00,72.1,47.1,30.59,WNW,293,0.0,0.0,41,0.00,,,0.02,WUHU216HW,2013-04-17 16:07:00,
2013-04-17 12:12:00,72.3,46.6,30.59,WNW,293,0.0,0.0,40,0.00,,,0.02,WUHU216HW,2013-04-17 16:12:00,
2013-04-17 12:17:00,73.0,47.6,30.59,NW,315,0.0,0.0,40,0.00,,,0.02,WUHU216HW,2013-04-17 16:17:00,
2013-04-17 12:22:00,73.7,47.2,30.59,NW,315,0.0,0.0,39,0.00,,,0.02,WUHU216HW,2013-04-17 16:22:00,
2013-04-17 12:27:00,74.4,47.8,30.59,NW,315,0.0,0.0,39,0.00,,,0.02,WUHU216HW,2013-04-17 16:27:00,
2013-04-17 12:32:00,75.5,47.3,30.59,NW,315,3.1,3.1,37,0.00,,,0.02,WUHU216HW,2013-04-17 16:32:00,
2013-04-17 12:37:00,75.7,47.4,30.59,WNW,293,4.2,4.2,37,0.00,,,0.02,WUHU216HW,2013-04-17 16:37:00,
2013-04-17 12:42:00,75.9,46.9,30.59,NW,315,0.0,4.2,36,0.00,,,0.02,WUHU216HW,2013-04-17 16:42:00,
2013-04-17 12:47:00,76.2,47.2,30.59,WNW,293,7.8,7.8,36,0.00,,,0.02,WUHU216HW,2013-04-17 16:47:00,
2013-04-17 12:52:00,76.2,47.2,30.58,WNW,293,0.0,7.8,36,0.00,,,0.02,WUHU216HW,2013-04-17 16:52:00,
2013-04-17 12:57:00,76.2,47.2,30.58,WNW,293,0.0,7.8,36,0.00,,,0.02,WUHU216HW,2013-04-17 16:57:00,
2013-04-17 13:02:00,76.2,46.4,30.58,NW,315,0.0,0.0,35,0.00,,,0.02,WUHU216HW,2013-04-17 17:02:00,
2013-04-17 13:07:00,76.2,45.7,30.57,WNW,293,0.0,0.0,34,0.00,,,0.02,WUHU216HW,2013-04-17 17:07:00,
2013-04-17 13:12:00,76.6,46.7,30.57,WNW,293,0.0,0.0,35,0.00,,,0.02,WUHU216HW,2013-04-17 17:12:00,
2013-04-17 13:17:00,76.6,46.7,30.57,WSW,248,0.0,0.0,35,0.00,,,0.02,WUHU216HW,2013-04-17 17:17:00,
2013-04-17 13:22:00,77.1,47.2,30.58,West,270,0.0,0.0,35,0.00,,,0.02,WUHU216HW,2013-04-17 17:22:00,
2013-04-17 13:27:00,77.5,46.8,30.57,SSE,158,0.0,0.0,34,0.00,,,0.02,WUHU216HW,2013-04-17 17:27:00,
2013-04-17 13:32:00,77.3,45.8,30.57,SE,135,0.0,0.0,33,0.00,,,0.02,WUHU216HW,2013-04-17 17:32:00,
2013-04-17 13:37:00,77.5,46.0,30.57,SE,135,0.0,0.0,33,0.00,,,0.02,WUHU216HW,2013-04-17 17:37:00,
2013-04-17 13:42:00,77.7,45.4,30.57,SSE,158,0.0,0.0,32,0.00,,,0.02,WUHU216HW,2013-04-17 17:42:00,
2013-04-17 13:47:00,77.5,45.2,30.58,SSW,203,0.0,0.0,32,0.00,,,0.02,WUHU216HW,2013-04-17 17:47:00,
2013-04-17 13:52:00,77.7,45.4,30.58,West,270,0.0,0.0,32,0.00,,,0.02,WUHU216HW,2013-04-17 17:52:00,
2013-04-17 13:57:00,77.5,45.2,30.58,SE,135,0.0,0.0,32,0.00,,,0.02,WUHU216HW,2013-04-17 17:57:00,
2013-04-17 14:02:00,77.7,45.4,30.58,ESE,113,0.0,0.0,32,0.00,,,0.02,WUHU216HW,2013-04-17 18:02:00,
2013-04-17 14:07:00,78.0,45.7,30.58,ESE,113,0.0,0.0,32,0.00,,,0.02,WUHU216HW,2013-04-17 18:07:00,
2013-04-17 14:12:00,78.6,45.3,30.58,WNW,293,0.0,0.0,31,0.00,,,0.02,WUHU216HW,2013-04-17 18:12:00,
2013-04-17 14:17:00,78.4,45.2,30.58,WNW,293,0.0,0.0,31,0.00,,,0.02,WUHU216HW,2013-04-17 18:17:00,
2013-04-17 14:22:00,78.6,45.3,30.58,West,270,0.0,0.0,31,0.00,,,0.02,WUHU216HW,2013-04-17 18:22:00,
2013-04-17 14:27:00,78.6,44.6,30.58,WSW,248,0.0,0.0,30,0.00,,,0.02,WUHU216HW,2013-04-17 18:27:00,
2013-04-17 14:32:00,78.0,44.9,30.58,NW,315,0.0,0.0,31,0.00,,,0.02,WUHU216HW,2013-04-17 18:32:00,
2013-04-17 14:37:00,77.7,43.9,30.58,WNW,293,0.0,0.0,30,0.00,,,0.02,WUHU216HW,2013-04-17 18:37:00,
2013-04-17 14:42:00,77.5,43.7,30.59,WNW,293,0.0,0.0,30,0.00,,,0.02,WUHU216HW,2013-04-17 18:42:00,
2013-04-17 14:47:00,77.1,44.2,30.58,WNW,293,0.0,0.0,31,0.00,,,0.02,WUHU216HW,2013-04-17 18:47:00,
2013-04-17 14:52:00,77.1,43.4,30.58,WNW,293,0.0,0.0,30,0.00,,,0.02,WUHU216HW,2013-04-17 18:52:00,
2013-04-17 14:57:00,77.0,43.3,30.58,WSW,248,0.0,0.0,30,0.00,,,0.02,WUHU216HW,2013-04-17 18:57:00,
2013-04-17 15:02:00,76.6,43.7,30.57,SW,225,0.0,0.0,31,0.00,,,0.02,WUHU216HW,2013-04-17 19:02:00,
2013-04-17 15:07:00,76.6,43.7,30.57,NW,315,0.0,0.0,31,0.00,,,0.02,WUHU216HW,2013-04-17 19:07:00,
2013-04-17 15:12:00,76.2,43.4,30.57,NW,315,0.0,0.0,31,0.00,,,0.02,WUHU216HW,2013-04-17 19:12:00,
2013-04-17 15:17:00,75.7,42.9,30.57,NW,315,0.0,0.0,31,0.00,,,0.02,WUHU216HW,2013-04-17 19:17:00,
2013-04-17 15:22:00,75.5,42.8,30.57,WNW,293,5.8,5.8,31,0.00,,,0.02,WUHU216HW,2013-04-17 19:22:00,
2013-04-17 15:27:00,75.3,42.6,30.57,NW,315,0.0,5.8,31,0.00,,,0.02,WUHU216HW,2013-04-17 19:27:00,
2013-04-17 15:32:00,75.3,42.6,30.57,WNW,293,0.0,0.0,31,0.00,,,0.02,WUHU216HW,2013-04-17 19:32:00,
2013-04-17 15:37:00,75.3,42.6,30.57,NW,315,0.0,0.0,31,0.00,,,0.02,WUHU216HW,2013-04-17 19:37:00,
2013-04-17 15:42:00,75.0,42.3,30.57,WNW,293,0.0,4.0,31,0.00,,,0.02,WUHU216HW,2013-04-17 19:42:00,
2013-04-17 15:47:00,74.8,42.1,30.57,WNW,293,0.0,4.0,31,0.00,,,0.02,WUHU216HW,2013-04-17 19:47:00,
2013-04-17 15:52:00,75.0,42.3,30.57,WNW,293,0.0,0.0,31,0.00,,,0.02,WUHU216HW,2013-04-17 19:52:00,
2013-04-17 15:57:00,75.0,42.3,30.57,WNW,293,0.0,0.0,31,0.00,,,0.02,WUHU216HW,2013-04-17 19:57:00,
2013-04-17 16:02:00,75.3,41.8,30.57,WNW,293,0.0,0.0,30,0.00,,,0.02,WUHU216HW,2013-04-17 20:02:00,
2013-04-17 16:08:00,75.2,41.7,30.57,WNW,293,0.0,0.0,30,0.00,,,0.02,WUHU216HW,2013-04-17 20:08:00,
2013-04-17 16:13:00,75.3,41.8,30.57,WNW,293,0.0,0.0,30,0.00,,,0.02,WUHU216HW,2013-04-17 20:13:00,
2013-04-17 16:18:00,75.3,41.8,30.57,West,270,0.0,2.0,30,0.00,,,0.02,WUHU216HW,2013-04-17 20:18:00,
2013-04-17 16:23:00,75.0,41.5,30.57,WNW,293,0.0,2.0,30,0.00,,,0.02,WUHU216HW,2013-04-17 20:23:00,
2013-04-17 16:28:00,75.0,41.5,30.57,WNW,293,0.0,0.0,30,0.00,,,0.02,WUHU216HW,2013-04-17 20:28:00,
2013-04-17 16:33:00,75.0,41.5,30.57,WNW,293,0.0,0.0,30,0.00,,,0.02,WUHU216HW,2013-04-17 20:33:00,
2013-04-17 16:38:00,75.0,41.5,30.57,WNW,293,0.0,0.0,30,0.00,,,0.02,WUHU216HW,2013-04-17 20:38:00,
2013-04-17 16:43:00,74.8,41.3,30.57,WNW,293,0.0,0.0,30,0.00,,,0.02,WUHU216HW,2013-04-17 20:43:00,
2013-04-17 16:48:00,74.6,41.2,30.57,WNW,293,0.0,0.0,30,0.00,,,0.02,WUHU216HW,2013-04-17 20:48:00,
2013-04-17 16:53:00,74.4,41.0,30.57,NW,315,0.0,0.0,30,0.00,,,0.02,WUHU216HW,2013-04-17 20:53:00,
2013-04-17 16:58:00,74.6,41.2,30.57,NW,315,0.0,0.0,30,0.00,,,0.02,WUHU216HW,2013-04-17 20:58:00,
2013-04-17 17:03:00,74.4,40.0,30.57,SSE,158,0.0,0.0,29,0.00,,,0.02,WUHU216HW,2013-04-17 21:03:00,
2013-04-17 17:08:00,74.1,40.7,30.57,WSW,248,0.0,0.0,30,0.00,,,0.02,WUHU216HW,2013-04-17 21:08:00,
2013-04-17 17:13:00,74.1,40.7,30.58,WSW,248,0.0,0.0,30,0.00,,,0.02,WUHU216HW,2013-04-17 21:13:00,
2013-04-17 17:18:00,73.5,39.2,30.58,WSW,248,0.0,5.8,29,0.00,,,0.02,WUHU216HW,2013-04-17 21:18:00,
2013-04-17 17:23:00,73.2,39.9,30.58,WSW,248,0.0,5.8,30,0.00,,,0.02,WUHU216HW,2013-04-17 21:23:00,
2013-04-17 17:28:00,73.2,39.9,30.58,WSW,248,0.0,0.0,30,0.00,,,0.02,WUHU216HW,2013-04-17 21:28:00,
2013-04-17 17:33:00,73.0,39.8,30.58,WSW,248,0.0,0.0,30,0.00,,,0.02,WUHU216HW,2013-04-17 21:33:00,
2013-04-17 17:38:00,73.0,39.8,30.59,WSW,248,0.0,0.0,30,0.00,,,0.02,WUHU216HW,2013-04-17 21:38:00,
2013-04-17 17:43:00,73.0,39.8,30.59,WSW,248,0.0,0.0,30,0.00,,,0.02,WUHU216HW,2013-04-17 21:43:00,
2013-04-17 17:48:00,72.6,39.5,30.59,WSW,248,0.0,0.0,30,0.00,,,0.02,WUHU216HW,2013-04-17 21:48:00,
2013-04-17 17:53:00,72.5,39.3,30.59,WSW,248,0.0,0.0,30,0.00,,,0.02,WUHU216HW,2013-04-17 21:53:00,
2013-04-17 17:58:00,72.5,39.3,30.59,WSW,248,0.0,0.0,30,0.00,,,0.02,WUHU216HW,2013-04-17 21:58:00,
2013-04-17 18:03:00,72.3,39.2,30.59,WSW,248,0.0,0.0,30,0.00,,,0.02,WUHU216HW,2013-04-17 22:03:00,
2013-04-17 18:08:00,71.9,38.9,30.59,WSW,248,0.0,0.0,30,0.00,,,0.02,WUHU216HW,2013-04-17 22:08:00,
2013-04-17 18:13:00,71.4,38.4,30.59,SE,135,0.0,0.0,30,0.00,,,0.02,WUHU216HW,2013-04-17 22:13:00,
2013-04-17 18:18:00,71.2,39.0,30.59,SE,135,0.0,0.0,31,0.00,,,0.02,WUHU216HW,2013-04-17 22:18:00,
2013-04-17 18:23:00,70.8,38.7,30.59,SE,135,0.0,0.2,31,0.00,,,0.02,WUHU216HW,2013-04-17 22:23:00,
2013-04-17 18:28:00,70.5,38.4,30.59,SE,135,0.0,0.2,31,0.00,,,0.02,WUHU216HW,2013-04-17 22:28:00,
2013-04-17 18:33:00,70.3,38.2,30.59,SE,135,0.0,0.0,31,0.00,,,0.02,WUHU216HW,2013-04-17 22:33:00,
2013-04-17 18:38:00,69.9,40.1,30.59,SE,135,0.0,0.0,34,0.00,,,0.02,WUHU216HW,2013-04-17 22:38:00,
2013-04-17 18:43:00,69.0,40.0,30.60,SSE,158,0.0,0.0,35,0.00,,,0.02,WUHU216HW,2013-04-17 22:43:00,
2013-04-17 18:48:00,68.7,39.7,30.60,SE,135,0.0,0.0,35,0.00,,,0.02,WUHU216HW,2013-04-17 22:48:00,
2013-04-17 18:53:00,68.1,40.0,30.60,SE,135,2.4,6.7,36,0.00,,,0.02,WUHU216HW,2013-04-17 22:53:00,
2013-04-17 18:58:00,67.8,39.6,30.60,SSE,158,0.0,6.7,36,0.00,,,0.02,WUHU216HW,2013-04-17 22:58:00,
2013-04-17 19:03:00,67.6,40.2,30.60,SSE,158,0.0,2.4,37,0.00,,,0.02,WUHU216HW,2013-04-17 23:03:00,
2013-04-17 19:08:00,67.1,39.7,30.60,SE,135,0.0,0.0,37,0.00,,,0.02,WUHU216HW,2013-04-17 23:08:00,
2013-04-17 19:13:00,66.7,40.2,30.60,ESE,113,0.0,0.0,38,0.00,,,0.02,WUHU216HW,2013-04-17 23:13:00,
2013-04-17 19:18:00,66.5,40.0,30.60,SE,135,0.0,0.0,38,0.00,,,0.02,WUHU216HW,2013-04-17 23:18:00,
2013-04-17 19:23:00,66.0,40.2,30.61,SE,135,0.0,0.0,39,0.00,,,0.02,WUHU216HW,2013-04-17 23:23:00,
2013-04-17 19:28:00,65.8,40.8,30.60,SE,135,0.0,0.0,40,0.00,,,0.02,WUHU216HW,2013-04-17 23:28:00,
2013-04-17 19:33:00,65.6,40.6,30.61,SE,135,0.0,0.0,40,0.00,,,0.02,WUHU216HW,2013-04-17 23:33:00,
2013-04-17 19:38:00,65.1,40.7,30.60,SE,135,0.0,0.0,41,0.00,,,0.02,WUHU216HW,2013-04-17 23:38:00,
2013-04-17 19:43:00,64.9,41.1,30.61,SE,135,0.0,0.0,42,0.00,,,0.02,WUHU216HW,2013-04-17 23:43:00,
2013-04-17 19:48:00,64.5,40.8,30.61,SE,135,0.0,0.0,42,0.00,,,0.02,WUHU216HW,2013-04-17 23:48:00,
2013-04-17 19:53:00,64.2,41.1,30.61,SE,135,0.0,0.0,43,0.00,,,0.02,WUHU216HW,2013-04-17 23:53:00,
2013-04-17 19:58:00,64.0,40.9,30.62,SE,135,0.0,0.0,43,0.00,,,0.02,WUHU216HW,2013-04-17 23:58:00,
2013-04-17 20:03:00,63.6,40.6,30.62,SE,135,0.0,0.0,43,0.00,,,0.02,WUHU216HW,2013-04-18 00:03:00,
2013-04-17 20:08:00,63.1,40.7,30.62,SE,135,0.0,0.0,44,0.00,,,0.02,WUHU216HW,2013-04-18 00:08:00,
2013-04-17 20:13:00,62.9,40.5,30.63,ESE,113,0.0,0.0,44,0.00,,,0.02,WUHU216HW,2013-04-18 00:13:00,
2013-04-17 20:18:00,62.6,40.8,30.63,SE,135,0.0,0.0,45,0.00,,,0.02,WUHU216HW,2013-04-18 00:18:00,
2013-04-17 20:23:00,61.8,40.7,30.63,ESE,113,0.0,0.0,46,0.00,,,0.02,WUHU216HW,2013-04-18 00:23:00,
2013-04-17 20:28:00,61.5,41.0,30.63,SE,135,0.0,0.0,47,0.00,,,0.02,WUHU216HW,2013-04-18 00:28:00,
2013-04-17 20:33:00,61.1,41.2,30.63,SE,135,0.0,0.0,48,0.00,,,0.02,WUHU216HW,2013-04-18 00:33:00,
2013-04-17 20:38:00,60.6,41.3,30.63,ESE,113,0.0,0.0,49,0.00,,,0.02,WUHU216HW,2013-04-18 00:38:00,
2013-04-17 20:43:00,60.4,41.7,30.64,SE,135,0.0,0.0,50,0.00,,,0.02,WUHU216HW,2013-04-18 00:43:00,
2013-04-17 20:48:00,60.4,41.7,30.64,SE,135,0.0,0.0,50,0.00,,,0.02,WUHU216HW,2013-04-18 00:48:00,
2013-04-17 20:53:00,59.9,41.7,30.64,SE,135,0.0,0.0,51,0.00,,,0.02,WUHU216HW,2013-04-18 00:53:00,
2013-04-17 20:58:00,59.5,41.8,30.64,SE,135,0.0,0.0,52,0.00,,,0.02,WUHU216HW,2013-04-18 00:58:00,
2013-04-17 21:03:00,59.3,41.2,30.64,SE,135,0.0,0.0,51,0.00,,,0.02,WUHU216HW,2013-04-18 01:03:00,
2013-04-17 21:08:00,59.0,40.9,30.64,SE,135,3.3,3.3,51,0.00,,,0.02,WUHU216HW,2013-04-18 01:08:00,
2013-04-17 21:13:00,58.8,40.7,30.65,SE,135,0.0,3.3,51,0.00,,,0.02,WUHU216HW,2013-04-18 01:13:00,
2013-04-17 21:18:00,58.6,40.6,30.65,SE,135,0.0,3.3,51,0.00,,,0.02,WUHU216HW,2013-04-18 01:18:00,
2013-04-17 21:23:00,58.4,40.4,30.65,SE,135,0.0,0.0,51,0.00,,,0.02,WUHU216HW,2013-04-18 01:23:00,
2013-04-17 21:28:00,58.2,40.2,30.65,SE,135,0.0,0.0,51,0.00,,,0.02,WUHU216HW,2013-04-18 01:28:00,
2013-04-17 21:33:00,58.2,40.2,30.66,SE,135,0.0,0.0,51,0.00,,,0.02,WUHU216HW,2013-04-18 01:33:00,
2013-04-17 21:38:00,58.1,40.1,30.66,SE,135,0.0,0.0,51,0.00,,,0.02,WUHU216HW,2013-04-18 01:38:00,
2013-04-17 21:43:00,57.9,39.9,30.66,SE,135,0.0,0.0,51,0.00,,,0.02,WUHU216HW,2013-04-18 01:43:00,
2013-04-17 21:48:00,57.9,39.9,30.66,SE,135,0.0,0.0,51,0.00,,,0.02,WUHU216HW,2013-04-18 01:48:00,
2013-04-17 21:53:00,57.9,39.9,30.67,SE,135,0.0,0.0,51,0.00,,,0.02,WUHU216HW,2013-04-18 01:53:00,
2013-04-17 21:58:00,57.7,39.3,30.67,SE,135,0.0,0.0,50,0.00,,,0.02,WUHU216HW,2013-04-18 01:58:00,
2013-04-17 22:03:00,57.7,39.3,30.67,SE,135,0.0,0.0,50,0.00,,,0.02,WUHU216HW,2013-04-18 02:03:00,
2013-04-17 22:08:00,57.7,39.3,30.66,SE,135,0.0,0.0,50,0.00,,,0.02,WUHU216HW,2013-04-18 02:08:00,
2013-04-17 22:13:00,57.7,38.7,30.66,SE,135,0.0,0.0,49,0.00,,,0.02,WUHU216HW,2013-04-18 02:13:00,
2013-04-17 22:18:00,57.7,38.7,30.67,SE,135,0.0,0.0,49,0.00,,,0.02,WUHU216HW,2013-04-18 02:18:00,
2013-04-17 22:23:00,57.5,39.1,30.67,SE,135,0.0,0.0,50,0.00,,,0.02,WUHU216HW,2013-04-18 02:23:00,
2013-04-17 22:28:00,57.5,38.5,30.66,SE,135,0.0,0.0,49,0.00,,,0.02,WUHU216HW,2013-04-18 02:28:00,
2013-04-17 22:33:00,57.5,39.1,30.65,SE,135,0.0,0.0,50,0.00,,,0.02,WUHU216HW,2013-04-18 02:33:00,
2013-04-17 22:38:00,57.5,39.1,30.65,SE,135,0.0,0.0,50,0.00,,,0.02,WUHU216HW,2013-04-18 02:38:00,
2013-04-17 22:43:00,57.5,38.5,30.65,SE,135,0.0,0.0,49,0.00,,,0.02,WUHU216HW,2013-04-18 02:43:00,
2013-04-17 22:48:00,57.3,38.4,30.65,SE,135,0.0,0.0,49,0.00,,,0.02,WUHU216HW,2013-04-18 02:48:00,
2013-04-17 22:53:00,57.3,38.4,30.65,SE,135,0.0,0.0,49,0.00,,,0.02,WUHU216HW,2013-04-18 02:53:00,
2013-04-17 22:58:00,57.3,38.4,30.65,SE,135,0.0,0.0,49,0.00,,,0.02,WUHU216HW,2013-04-18 02:58:00,
2013-04-17 23:03:00,57.3,38.4,30.66,SE,135,0.0,0.0,49,0.00,,,0.02,WUHU216HW,2013-04-18 03:03:00,
2013-04-17 23:08:00,57.2,38.2,30.66,SE,135,0.0,0.0,49,0.00,,,0.02,WUHU216HW,2013-04-18 03:08:00,
2013-04-17 23:13:00,57.0,38.6,30.66,SE,135,0.0,0.0,50,0.00,,,0.02,WUHU216HW,2013-04-18 03:13:00,
2013-04-17 23:18:00,57.0,39.1,30.66,SE,135,0.0,0.0,51,0.00,,,0.02,WUHU216HW,2013-04-18 03:18:00,
2013-04-17 23:23:00,56.8,39.4,30.65,SE,135,0.0,0.0,52,0.00,,,0.02,WUHU216HW,2013-04-18 03:23:00,
2013-04-17 23:28:00,56.8,39.4,30.65,SE,135,0.0,0.0,52,0.00,,,0.02,WUHU216HW,2013-04-18 03:28:00,
2013-04-17 23:33:00,56.6,39.0,30.66,SE,135,0.0,0.0,52,0.00,,,0.02,WUHU216HW,2013-04-18 03:33:00,
2013-04-17 23:38:00,56.4,39.0,30.67,SE,135,0.0,0.0,52,0.00,,,0.02,WUHU216HW,2013-04-18 03:38:00,
2013-04-17 23:43:00,56.4,39.0,30.67,SE,135,0.0,0.0,52,0.00,,,0.02,WUHU216HW,2013-04-18 03:43:00,
2013-04-17 23:48:00,56.4,39.0,30.67,SE,135,0.0,0.0,52,0.00,,,0.02,WUHU216HW,2013-04-18 03:48:00,
2013-04-17 23:53:00,56.3,38.8,30.67,SE,135,0.0,0.0,52,0.00,,,0.02,WUHU216HW,2013-04-18 03:53:00,
2013-04-17 23:58:00,56.3,38.8,30.68,SE,135,0.0,0.0,52,0.00,,,0.00,WUHU216HW,2013-04-18 03:58:00,